sensor_id;sensor_type;location;lat;lon;timestamp;temperature;humidity
19803;DHT22;66074;50.764;6.090;2024-03-23T00:55:51;9.80;99.50
19803;DHT22;66074;50.764;6.090;2024-03-23T00:58:17;9.80;99.40
19803;DHT22;66074;50.764;6.090;2024-03-23T01:00:43;9.60;99.40
19803;DHT22;66074;50.764;6.090;2024-03-23T01:03:09;9.60;99.70
19803;DHT22;66074;50.764;6.090;2024-03-23T01:05:34;9.50;99.90
19803;DHT22;66074;50.764;6.090;2024-03-23T01:08:00;9.50;99.90
19803;DHT22;66074;50.764;6.090;2024-03-23T01:10:25;9.50;99.90
19803;DHT22;66074;50.764;6.090;2024-03-23T01:12:51;9.40;99.90
19803;DHT22;66074;50.764;6.090;2024-03-23T01:15:17;9.40;99.90
19803;DHT22;66074;50.764;6.090;2024-03-23T01:17:42;9.50;99.90
19803;DHT22;66074;50.764;6.090;2024-03-23T01:20:09;9.30;99.80
19803;DHT22;66074;50.764;6.090;2024-03-23T01:22:35;9.30;99.90
19803;DHT22;66074;50.764;6.090;2024-03-23T01:25:01;9.30;99.90
19803;DHT22;66074;50.764;6.090;2024-03-23T01:27:26;9.40;99.90
19803;DHT22;66074;50.764;6.090;2024-03-23T01:29:52;9.50;99.90
19803;DHT22;66074;50.764;6.090;2024-03-23T01:32:20;9.40;99.90
19803;DHT22;66074;50.764;6.090;2024-03-23T01:34:46;9.30;99.90
19803;DHT22;66074;50.764;6.090;2024-03-23T01:37:11;9.10;99.40
19803;DHT22;66074;50.764;6.090;2024-03-23T01:39:37;9.00;98.60
19803;DHT22;66074;50.764;6.090;2024-03-23T01:42:04;8.70;99.30
19803;DHT22;66074;50.764;6.090;2024-03-23T01:44:30;8.60;99.10
19803;DHT22;66074;50.764;6.090;2024-03-23T01:46:56;8.60;99.00
19803;DHT22;66074;50.764;6.090;2024-03-23T01:49:21;8.50;99.30
19803;DHT22;66074;50.764;6.090;2024-03-23T01:51:47;8.60;99.30
19803;DHT22;66074;50.764;6.090;2024-03-23T01:54:13;8.60;98.50
19803;DHT22;66074;50.764;6.090;2024-03-23T01:56:39;8.60;99.20
19803;DHT22;66074;50.764;6.090;2024-03-23T01:59:05;8.50;98.20
19803;DHT22;66074;50.764;6.090;2024-03-23T02:01:32;8.50;97.80
19803;DHT22;66074;50.764;6.090;2024-03-23T02:03:58;8.50;97.90
19803;DHT22;66074;50.764;6.090;2024-03-23T02:06:24;8.50;98.30
19803;DHT22;66074;50.764;6.090;2024-03-23T02:08:50;8.50;98.20
19803;DHT22;66074;50.764;6.090;2024-03-23T02:11:16;8.50;97.70
19803;DHT22;66074;50.764;6.090;2024-03-23T02:13:42;8.50;97.70
19803;DHT22;66074;50.764;6.090;2024-03-23T02:16:08;8.50;98.00
19803;DHT22;66074;50.764;6.090;2024-03-23T02:18:34;8.50;98.40
19803;DHT22;66074;50.764;6.090;2024-03-23T02:21:00;8.70;98.90
19803;DHT22;66074;50.764;6.090;2024-03-23T02:23:25;8.80;98.10
19803;DHT22;66074;50.764;6.090;2024-03-23T02:25:51;8.80;97.70
19803;DHT22;66074;50.764;6.090;2024-03-23T02:28:18;8.80;97.60
19803;DHT22;66074;50.764;6.090;2024-03-23T02:30:44;8.90;97.90
19803;DHT22;66074;50.764;6.090;2024-03-23T02:33:10;8.90;97.50
19803;DHT22;66074;50.764;6.090;2024-03-23T02:35:35;8.80;97.00
19803;DHT22;66074;50.764;6.090;2024-03-23T02:38:04;8.70;96.90
19803;DHT22;66074;50.764;6.090;2024-03-23T02:40:29;8.70;96.60
19803;DHT22;66074;50.764;6.090;2024-03-23T02:42:55;8.60;96.60
19803;DHT22;66074;50.764;6.090;2024-03-23T02:45:21;8.60;96.50
19803;DHT22;66074;50.764;6.090;2024-03-23T02:47:47;8.60;96.50
19803;DHT22;66074;50.764;6.090;2024-03-23T02:50:20;8.60;96.30
19803;DHT22;66074;50.764;6.090;2024-03-23T02:52:46;8.60;96.40
19803;DHT22;66074;50.764;6.090;2024-03-23T02:55:12;8.60;96.90
19803;DHT22;66074;50.764;6.090;2024-03-23T02:57:37;8.70;97.10
19803;DHT22;66074;50.764;6.090;2024-03-23T03:00:04;8.90;97.20
19803;DHT22;66074;50.764;6.090;2024-03-23T03:02:30;8.80;96.60
19803;DHT22;66074;50.764;6.090;2024-03-23T03:04:56;8.90;97.20
19803;DHT22;66074;50.764;6.090;2024-03-23T03:07:22;9.00;97.20
19803;DHT22;66074;50.764;6.090;2024-03-23T03:09:47;9.00;97.30
19803;DHT22;66074;50.764;6.090;2024-03-23T03:12:13;9.10;97.30
19803;DHT22;66074;50.764;6.090;2024-03-23T03:14:39;9.10;97.40
19803;DHT22;66074;50.764;6.090;2024-03-23T03:17:05;9.30;97.20
19803;DHT22;66074;50.764;6.090;2024-03-23T03:19:30;9.20;96.90
19803;DHT22;66074;50.764;6.090;2024-03-23T03:21:56;9.20;97.10
19803;DHT22;66074;50.764;6.090;2024-03-23T03:24:22;9.30;97.30
19803;DHT22;66074;50.764;6.090;2024-03-23T03:26:47;9.30;96.90
19803;DHT22;66074;50.764;6.090;2024-03-23T03:29:15;9.40;96.90
19803;DHT22;66074;50.764;6.090;2024-03-23T03:31:41;9.40;96.80
19803;DHT22;66074;50.764;6.090;2024-03-23T03:34:06;9.30;97.00
19803;DHT22;66074;50.764;6.090;2024-03-23T03:36:32;9.40;96.90
19803;DHT22;66074;50.764;6.090;2024-03-23T03:38:58;9.30;96.90
19803;DHT22;66074;50.764;6.090;2024-03-23T03:41:24;9.30;97.00
19803;DHT22;66074;50.764;6.090;2024-03-23T03:43:49;9.30;97.00
19803;DHT22;66074;50.764;6.090;2024-03-23T03:46:15;9.30;97.10
19803;DHT22;66074;50.764;6.090;2024-03-23T03:48:40;9.30;97.00
19803;DHT22;66074;50.764;6.090;2024-03-23T03:51:06;9.30;96.90
19803;DHT22;66074;50.764;6.090;2024-03-23T03:53:32;9.20;96.50
19803;DHT22;66074;50.764;6.090;2024-03-23T03:56:01;9.20;96.80
19803;DHT22;66074;50.764;6.090;2024-03-23T03:58:28;9.20;96.90
19803;DHT22;66074;50.764;6.090;2024-03-23T04:00:54;9.30;96.90
19803;DHT22;66074;50.764;6.090;2024-03-23T04:03:21;9.20;96.70
19803;DHT22;66074;50.764;6.090;2024-03-23T04:05:53;9.20;96.50
19803;DHT22;66074;50.764;6.090;2024-03-23T04:08:23;9.20;96.80
19803;DHT22;66074;50.764;6.090;2024-03-23T04:10:49;9.20;96.70
19803;DHT22;66074;50.764;6.090;2024-03-23T04:13:15;9.20;96.90
19803;DHT22;66074;50.764;6.090;2024-03-23T04:15:42;9.10;96.70
19803;DHT22;66074;50.764;6.090;2024-03-23T04:18:07;9.20;96.70
19803;DHT22;66074;50.764;6.090;2024-03-23T04:20:33;9.20;96.70
19803;DHT22;66074;50.764;6.090;2024-03-23T04:22:59;9.20;96.60
19803;DHT22;66074;50.764;6.090;2024-03-23T04:25:25;9.20;96.40
19803;DHT22;66074;50.764;6.090;2024-03-23T04:27:51;9.10;96.60
19803;DHT22;66074;50.764;6.090;2024-03-23T04:30:17;9.10;96.60
19803;DHT22;66074;50.764;6.090;2024-03-23T04:32:43;9.10;96.60
19803;DHT22;66074;50.764;6.090;2024-03-23T04:35:08;9.00;96.20
19803;DHT22;66074;50.764;6.090;2024-03-23T04:37:38;9.00;96.30
19803;DHT22;66074;50.764;6.090;2024-03-23T04:40:09;9.00;96.30
19803;DHT22;66074;50.764;6.090;2024-03-23T04:42:36;9.00;96.40
19803;DHT22;66074;50.764;6.090;2024-03-23T04:45:06;9.00;96.40
19803;DHT22;66074;50.764;6.090;2024-03-23T04:47:32;9.00;96.40
19803;DHT22;66074;50.764;6.090;2024-03-23T04:49:57;9.00;96.40
19803;DHT22;66074;50.764;6.090;2024-03-23T04:52:23;8.90;96.50
19803;DHT22;66074;50.764;6.090;2024-03-23T04:54:49;8.90;96.60
19803;DHT22;66074;50.764;6.090;2024-03-23T04:57:14;8.80;96.60
19803;DHT22;66074;50.764;6.090;2024-03-23T04:59:42;8.80;96.70
19803;DHT22;66074;50.764;6.090;2024-03-23T05:02:07;8.70;96.60
19803;DHT22;66074;50.764;6.090;2024-03-23T05:04:33;8.80;96.70
19803;DHT22;66074;50.764;6.090;2024-03-23T05:06:58;8.90;96.80
19803;DHT22;66074;50.764;6.090;2024-03-23T05:09:24;8.90;96.70
19803;DHT22;66074;50.764;6.090;2024-03-23T05:11:50;8.90;96.50
19803;DHT22;66074;50.764;6.090;2024-03-23T05:14:16;8.90;96.50
19803;DHT22;66074;50.764;6.090;2024-03-23T05:16:41;8.90;96.60
19803;DHT22;66074;50.764;6.090;2024-03-23T05:19:07;8.90;96.60
19803;DHT22;66074;50.764;6.090;2024-03-23T05:21:33;8.90;96.60
19803;DHT22;66074;50.764;6.090;2024-03-23T05:23:58;8.90;96.90
19803;DHT22;66074;50.764;6.090;2024-03-23T05:26:24;8.90;96.60
19803;DHT22;66074;50.764;6.090;2024-03-23T05:28:50;8.90;96.50
19803;DHT22;66074;50.764;6.090;2024-03-23T05:31:25;8.80;96.40
19803;DHT22;66074;50.764;6.090;2024-03-23T05:33:51;8.90;96.50
19803;DHT22;66074;50.764;6.090;2024-03-23T05:36:17;8.80;96.40
19803;DHT22;66074;50.764;6.090;2024-03-23T05:38:43;8.80;96.40
19803;DHT22;66074;50.764;6.090;2024-03-23T05:41:08;8.70;96.30
19803;DHT22;66074;50.764;6.090;2024-03-23T05:43:34;8.70;96.40
19803;DHT22;66074;50.764;6.090;2024-03-23T05:46:00;8.70;96.40
19803;DHT22;66074;50.764;6.090;2024-03-23T05:48:31;8.60;96.50
19803;DHT22;66074;50.764;6.090;2024-03-23T05:50:56;8.50;96.60
19803;DHT22;66074;50.764;6.090;2024-03-23T05:53:22;8.50;96.70
19803;DHT22;66074;50.764;6.090;2024-03-23T05:55:49;8.50;96.60
19803;DHT22;66074;50.764;6.090;2024-03-23T05:58:16;8.50;96.70
19803;DHT22;66074;50.764;6.090;2024-03-23T06:00:42;8.50;97.00
19803;DHT22;66074;50.764;6.090;2024-03-23T06:03:08;8.50;96.60
19803;DHT22;66074;50.764;6.090;2024-03-23T06:05:34;8.40;96.70
19803;DHT22;66074;50.764;6.090;2024-03-23T06:07:59;8.50;96.70
19803;DHT22;66074;50.764;6.090;2024-03-23T06:10:25;8.50;96.80
19803;DHT22;66074;50.764;6.090;2024-03-23T06:12:51;8.50;96.80
19803;DHT22;66074;50.764;6.090;2024-03-23T06:15:18;8.50;96.80
19803;DHT22;66074;50.764;6.090;2024-03-23T06:17:44;8.50;96.80
19803;DHT22;66074;50.764;6.090;2024-03-23T06:20:10;8.50;96.90
19803;DHT22;66074;50.764;6.090;2024-03-23T06:22:36;8.50;96.90
19803;DHT22;66074;50.764;6.090;2024-03-23T06:25:02;8.50;97.20
19803;DHT22;66074;50.764;6.090;2024-03-23T06:27:28;8.50;97.20
19803;DHT22;66074;50.764;6.090;2024-03-23T06:29:54;8.50;97.20
19803;DHT22;66074;50.764;6.090;2024-03-23T06:32:20;8.60;97.50
19803;DHT22;66074;50.764;6.090;2024-03-23T06:34:46;8.60;97.30
19803;DHT22;66074;50.764;6.090;2024-03-23T06:37:12;8.60;97.30
19803;DHT22;66074;50.764;6.090;2024-03-23T06:39:38;8.60;97.40
19803;DHT22;66074;50.764;6.090;2024-03-23T06:42:04;8.70;97.50
19803;DHT22;66074;50.764;6.090;2024-03-23T06:44:30;8.60;97.50
19803;DHT22;66074;50.764;6.090;2024-03-23T06:46:56;8.70;97.50
19803;DHT22;66074;50.764;6.090;2024-03-23T06:49:23;8.80;97.30
19803;DHT22;66074;50.764;6.090;2024-03-23T06:51:48;8.70;97.40
19803;DHT22;66074;50.764;6.090;2024-03-23T06:54:14;8.70;97.30
19803;DHT22;66074;50.764;6.090;2024-03-23T06:56:40;8.70;97.30
19803;DHT22;66074;50.764;6.090;2024-03-23T06:59:06;8.70;97.30
19803;DHT22;66074;50.764;6.090;2024-03-23T07:01:32;8.70;97.30
19803;DHT22;66074;50.764;6.090;2024-03-23T07:03:57;8.70;97.60
19803;DHT22;66074;50.764;6.090;2024-03-23T07:06:23;8.70;97.80
19803;DHT22;66074;50.764;6.090;2024-03-23T07:08:49;8.80;97.50
19803;DHT22;66074;50.764;6.090;2024-03-23T07:11:21;8.80;97.40
19803;DHT22;66074;50.764;6.090;2024-03-23T07:13:49;9.00;97.20
19803;DHT22;66074;50.764;6.090;2024-03-23T07:16:15;9.00;97.20
19803;DHT22;66074;50.764;6.090;2024-03-23T07:18:41;8.90;97.30
19803;DHT22;66074;50.764;6.090;2024-03-23T07:21:07;9.10;97.30
19803;DHT22;66074;50.764;6.090;2024-03-23T07:23:33;9.00;97.20
19803;DHT22;66074;50.764;6.090;2024-03-23T07:26:05;8.90;97.20
19803;DHT22;66074;50.764;6.090;2024-03-23T07:28:31;9.00;97.40
19803;DHT22;66074;50.764;6.090;2024-03-23T07:33:31;9.00;97.10
19803;DHT22;66074;50.764;6.090;2024-03-23T07:35:57;9.00;97.10
19803;DHT22;66074;50.764;6.090;2024-03-23T07:38:23;9.00;97.20
19803;DHT22;66074;50.764;6.090;2024-03-23T07:40:49;8.90;97.50
19803;DHT22;66074;50.764;6.090;2024-03-23T07:43:21;8.80;97.10
19803;DHT22;66074;50.764;6.090;2024-03-23T07:45:53;8.90;97.00
19803;DHT22;66074;50.764;6.090;2024-03-23T07:48:20;8.90;96.80
19803;DHT22;66074;50.764;6.090;2024-03-23T07:50:57;8.80;96.80
19803;DHT22;66074;50.764;6.090;2024-03-23T07:53:25;8.90;96.90
19803;DHT22;66074;50.764;6.090;2024-03-23T07:55:55;8.90;96.70
19803;DHT22;66074;50.764;6.090;2024-03-23T07:58:21;8.90;96.60
19803;DHT22;66074;50.764;6.090;2024-03-23T08:00:47;9.00;96.50
19803;DHT22;66074;50.764;6.090;2024-03-23T08:03:12;9.10;96.40
19803;DHT22;66074;50.764;6.090;2024-03-23T08:05:38;9.20;96.40
19803;DHT22;66074;50.764;6.090;2024-03-23T08:08:04;9.30;95.90
19803;DHT22;66074;50.764;6.090;2024-03-23T08:10:29;9.40;96.10
19803;DHT22;66074;50.764;6.090;2024-03-23T08:12:55;9.50;95.80
19803;DHT22;66074;50.764;6.090;2024-03-23T08:15:21;9.50;95.70
19803;DHT22;66074;50.764;6.090;2024-03-23T08:17:46;9.60;95.40
19803;DHT22;66074;50.764;6.090;2024-03-23T08:20:12;9.50;95.50
19803;DHT22;66074;50.764;6.090;2024-03-23T08:22:38;9.60;95.60
19803;DHT22;66074;50.764;6.090;2024-03-23T08:25:03;9.60;95.10
19803;DHT22;66074;50.764;6.090;2024-03-23T08:27:29;9.50;95.40
19803;DHT22;66074;50.764;6.090;2024-03-23T08:29:55;9.70;95.30
19803;DHT22;66074;50.764;6.090;2024-03-23T08:32:20;9.70;95.40
19803;DHT22;66074;50.764;6.090;2024-03-23T08:34:46;9.70;95.30
19803;DHT22;66074;50.764;6.090;2024-03-23T08:37:11;9.70;95.00
19803;DHT22;66074;50.764;6.090;2024-03-23T08:39:37;9.70;95.20
19803;DHT22;66074;50.764;6.090;2024-03-23T08:42:03;9.80;95.70
19803;DHT22;66074;50.764;6.090;2024-03-23T08:44:28;9.80;95.30
19803;DHT22;66074;50.764;6.090;2024-03-23T08:46:56;9.90;95.10
19803;DHT22;66074;50.764;6.090;2024-03-23T08:49:22;9.90;95.00
19803;DHT22;66074;50.764;6.090;2024-03-23T08:51:47;9.80;94.90
19803;DHT22;66074;50.764;6.090;2024-03-23T08:54:13;9.80;95.00
19803;DHT22;66074;50.764;6.090;2024-03-23T08:56:38;9.90;95.10
19803;DHT22;66074;50.764;6.090;2024-03-23T08:59:07;9.90;94.50
19803;DHT22;66074;50.764;6.090;2024-03-23T09:01:32;9.80;94.70
19803;DHT22;66074;50.764;6.090;2024-03-23T09:03:58;9.80;94.80
19803;DHT22;66074;50.764;6.090;2024-03-23T09:06:23;9.70;94.80
19803;DHT22;66074;50.764;6.090;2024-03-23T09:08:49;9.70;94.90
19803;DHT22;66074;50.764;6.090;2024-03-23T09:11:14;9.70;94.90
19803;DHT22;66074;50.764;6.090;2024-03-23T09:13:40;9.70;94.60
19803;DHT22;66074;50.764;6.090;2024-03-23T09:16:07;9.60;94.80
19803;DHT22;66074;50.764;6.090;2024-03-23T09:18:35;9.60;94.90
19803;DHT22;66074;50.764;6.090;2024-03-23T09:21:10;9.60;94.90
19803;DHT22;66074;50.764;6.090;2024-03-23T09:23:36;9.50;94.50
19803;DHT22;66074;50.764;6.090;2024-03-23T09:26:05;9.40;94.90
19803;DHT22;66074;50.764;6.090;2024-03-23T09:28:33;9.20;94.80
19803;DHT22;66074;50.764;6.090;2024-03-23T09:31:05;9.20;94.90
19803;DHT22;66074;50.764;6.090;2024-03-23T09:33:32;9.20;94.90
19803;DHT22;66074;50.764;6.090;2024-03-23T09:36:03;9.30;94.60
19803;DHT22;66074;50.764;6.090;2024-03-23T09:38:29;9.20;94.30
19803;DHT22;66074;50.764;6.090;2024-03-23T09:40:54;9.20;94.10
19803;DHT22;66074;50.764;6.090;2024-03-23T09:43:20;9.20;94.10
19803;DHT22;66074;50.764;6.090;2024-03-23T09:45:46;9.30;93.80
19803;DHT22;66074;50.764;6.090;2024-03-23T09:48:12;9.20;93.70
19803;DHT22;66074;50.764;6.090;2024-03-23T09:50:39;9.20;93.90
19803;DHT22;66074;50.764;6.090;2024-03-23T09:53:07;9.00;93.70
19803;DHT22;66074;50.764;6.090;2024-03-23T09:55:33;9.00;94.00
19803;DHT22;66074;50.764;6.090;2024-03-23T09:58:00;8.90;94.20
19803;DHT22;66074;50.764;6.090;2024-03-23T10:00:26;8.90;94.30
19803;DHT22;66074;50.764;6.090;2024-03-23T10:02:52;9.00;94.30
19803;DHT22;66074;50.764;6.090;2024-03-23T10:05:21;9.10;94.60
19803;DHT22;66074;50.764;6.090;2024-03-23T10:07:49;9.10;94.40
19803;DHT22;66074;50.764;6.090;2024-03-23T10:10:15;9.20;94.70
19803;DHT22;66074;50.764;6.090;2024-03-23T10:12:47;9.30;94.60
19803;DHT22;66074;50.764;6.090;2024-03-23T10:15:24;9.40;94.70
19803;DHT22;66074;50.764;6.090;2024-03-23T10:17:50;9.60;94.60
19803;DHT22;66074;50.764;6.090;2024-03-23T10:20:20;9.70;94.50
19803;DHT22;66074;50.764;6.090;2024-03-23T10:22:51;9.70;94.30
19803;DHT22;66074;50.764;6.090;2024-03-23T10:25:17;9.60;94.00
19803;DHT22;66074;50.764;6.090;2024-03-23T10:27:43;9.60;94.20
19803;DHT22;66074;50.764;6.090;2024-03-23T10:30:13;9.60;94.30
19803;DHT22;66074;50.764;6.090;2024-03-23T10:32:42;9.70;94.20
19803;DHT22;66074;50.764;6.090;2024-03-23T10:37:42;9.80;93.90
19803;DHT22;66074;50.764;6.090;2024-03-23T10:40:10;9.90;94.20
19803;DHT22;66074;50.764;6.090;2024-03-23T10:42:38;10.10;94.10
19803;DHT22;66074;50.764;6.090;2024-03-23T10:45:07;10.30;94.30
19803;DHT22;66074;50.764;6.090;2024-03-23T10:47:34;10.40;94.00
19803;DHT22;66074;50.764;6.090;2024-03-23T10:50:00;10.40;93.80
19803;DHT22;66074;50.764;6.090;2024-03-23T10:52:26;10.50;93.70
19803;DHT22;66074;50.764;6.090;2024-03-23T10:54:52;10.40;93.80
19803;DHT22;66074;50.764;6.090;2024-03-23T10:57:20;10.30;92.90
19803;DHT22;66074;50.764;6.090;2024-03-23T10:59:47;10.30;93.10
19803;DHT22;66074;50.764;6.090;2024-03-23T11:02:20;10.40;92.90
19803;DHT22;66074;50.764;6.090;2024-03-23T11:04:46;10.30;92.60
19803;DHT22;66074;50.764;6.090;2024-03-23T11:09:53;10.50;92.60
19803;DHT22;66074;50.764;6.090;2024-03-23T11:14:55;10.50;91.30
19803;DHT22;66074;50.764;6.090;2024-03-23T11:17:22;10.40;91.10
19803;DHT22;66074;50.764;6.090;2024-03-23T11:19:58;10.40;90.80
19803;DHT22;66074;50.764;6.090;2024-03-23T11:22:44;10.30;90.70
19803;DHT22;66074;50.764;6.090;2024-03-23T11:27:43;10.40;90.90
19803;DHT22;66074;50.764;6.090;2024-03-23T11:30:19;10.40;91.00
19803;DHT22;66074;50.764;6.090;2024-03-23T11:32:48;10.40;90.10
19803;DHT22;66074;50.764;6.090;2024-03-23T11:35:39;10.30;89.50
19803;DHT22;66074;50.764;6.090;2024-03-23T11:38:16;10.40;90.10
19803;DHT22;66074;50.764;6.090;2024-03-23T11:40:46;10.40;89.80
19803;DHT22;66074;50.764;6.090;2024-03-23T11:43:22;10.40;89.50
19803;DHT22;66074;50.764;6.090;2024-03-23T11:45:50;10.30;90.00
19803;DHT22;66074;50.764;6.090;2024-03-23T11:48:21;10.30;89.20
19803;DHT22;66074;50.764;6.090;2024-03-23T11:50:48;10.50;90.10
19803;DHT22;66074;50.764;6.090;2024-03-23T11:53:20;10.70;89.80
19803;DHT22;66074;50.764;6.090;2024-03-23T11:55:50;10.80;88.40
19803;DHT22;66074;50.764;6.090;2024-03-23T11:58:20;10.90;89.00
19803;DHT22;66074;50.764;6.090;2024-03-23T12:03:17;11.10;88.90
19803;DHT22;66074;50.764;6.090;2024-03-23T12:05:48;11.20;89.10
19803;DHT22;66074;50.764;6.090;2024-03-23T12:08:22;11.20;89.20
19803;DHT22;66074;50.764;6.090;2024-03-23T12:10:53;11.10;89.00
19803;DHT22;66074;50.764;6.090;2024-03-23T12:13:20;11.10;90.00
19803;DHT22;66074;50.764;6.090;2024-03-23T12:15:50;11.00;89.60
19803;DHT22;66074;50.764;6.090;2024-03-23T12:18:17;11.00;89.80
19803;DHT22;66074;50.764;6.090;2024-03-23T12:20:43;10.90;89.90
19803;DHT22;66074;50.764;6.090;2024-03-23T12:23:10;10.90;88.50
19803;DHT22;66074;50.764;6.090;2024-03-23T12:25:37;10.80;89.30
19803;DHT22;66074;50.764;6.090;2024-03-23T12:28:03;10.90;88.00
19803;DHT22;66074;50.764;6.090;2024-03-23T12:30:40;10.90;87.80
19803;DHT22;66074;50.764;6.090;2024-03-23T12:33:07;10.90;86.80
19803;DHT22;66074;50.764;6.090;2024-03-23T12:35:32;11.10;86.50
19803;DHT22;66074;50.764;6.090;2024-03-23T12:37:58;11.20;86.80
19803;DHT22;66074;50.764;6.090;2024-03-23T12:40:24;11.40;86.00
19803;DHT22;66074;50.764;6.090;2024-03-23T12:42:50;11.40;83.20
19803;DHT22;66074;50.764;6.090;2024-03-23T12:45:15;11.40;84.80
19803;DHT22;66074;50.764;6.090;2024-03-23T12:47:44;11.40;83.60
19803;DHT22;66074;50.764;6.090;2024-03-23T12:50:09;11.50;86.00
19803;DHT22;66074;50.764;6.090;2024-03-23T12:52:36;11.70;85.00
19803;DHT22;66074;50.764;6.090;2024-03-23T12:55:02;11.70;85.00
19803;DHT22;66074;50.764;6.090;2024-03-23T12:57:31;11.50;83.30
19803;DHT22;66074;50.764;6.090;2024-03-23T12:59:57;11.60;83.80
19803;DHT22;66074;50.764;6.090;2024-03-23T13:02:23;11.70;83.60
19803;DHT22;66074;50.764;6.090;2024-03-23T13:04:53;11.90;84.40
19803;DHT22;66074;50.764;6.090;2024-03-23T13:07:19;12.00;83.80
19803;DHT22;66074;50.764;6.090;2024-03-23T13:09:45;12.20;83.70
19803;DHT22;66074;50.764;6.090;2024-03-23T13:12:11;12.20;82.90
19803;DHT22;66074;50.764;6.090;2024-03-23T13:14:39;12.10;81.50
19803;DHT22;66074;50.764;6.090;2024-03-23T13:17:06;12.20;82.30
19803;DHT22;66074;50.764;6.090;2024-03-23T13:19:32;12.20;82.50
19803;DHT22;66074;50.764;6.090;2024-03-23T13:21:59;12.00;81.90
19803;DHT22;66074;50.764;6.090;2024-03-23T13:24:25;11.60;82.30
19803;DHT22;66074;50.764;6.090;2024-03-23T13:26:55;11.20;85.70
19803;DHT22;66074;50.764;6.090;2024-03-23T13:29:21;10.90;86.70
19803;DHT22;66074;50.764;6.090;2024-03-23T13:31:48;10.60;88.20
19803;DHT22;66074;50.764;6.090;2024-03-23T13:34:14;10.70;88.30
19803;DHT22;66074;50.764;6.090;2024-03-23T13:36:41;10.80;88.80
19803;DHT22;66074;50.764;6.090;2024-03-23T13:39:07;11.70;89.50
19803;DHT22;66074;50.764;6.090;2024-03-23T13:41:43;12.70;87.30
19803;DHT22;66074;50.764;6.090;2024-03-23T13:44:10;12.50;86.10
19803;DHT22;66074;50.764;6.090;2024-03-23T13:46:36;12.10;86.50
19803;DHT22;66074;50.764;6.090;2024-03-23T13:49:03;11.80;85.90
19803;DHT22;66074;50.764;6.090;2024-03-23T13:51:29;11.60;86.50
19803;DHT22;66074;50.764;6.090;2024-03-23T13:53:55;11.40;86.10
19803;DHT22;66074;50.764;6.090;2024-03-23T13:56:28;11.10;86.30
19803;DHT22;66074;50.764;6.090;2024-03-23T13:58:56;11.20;87.50
19803;DHT22;66074;50.764;6.090;2024-03-23T14:01:22;11.10;87.10
19803;DHT22;66074;50.764;6.090;2024-03-23T14:03:48;11.10;87.30
19803;DHT22;66074;50.764;6.090;2024-03-23T14:06:14;11.90;87.80
19803;DHT22;66074;50.764;6.090;2024-03-23T14:08:39;12.80;86.40
19803;DHT22;66074;50.764;6.090;2024-03-23T14:11:08;14.50;85.60
19803;DHT22;66074;50.764;6.090;2024-03-23T14:13:34;18.30;83.00
19803;DHT22;66074;50.764;6.090;2024-03-23T14:16:00;21.40;78.40
19803;DHT22;66074;50.764;6.090;2024-03-23T14:18:26;20.90;74.20
19803;DHT22;66074;50.764;6.090;2024-03-23T14:20:55;19.00;77.00
19803;DHT22;66074;50.764;6.090;2024-03-23T14:23:24;17.70;79.00
19803;DHT22;66074;50.764;6.090;2024-03-23T14:25:53;16.80;82.10
19803;DHT22;66074;50.764;6.090;2024-03-23T14:28:19;16.00;81.10
19803;DHT22;66074;50.764;6.090;2024-03-23T14:30:45;15.60;83.10
19803;DHT22;66074;50.764;6.090;2024-03-23T14:33:11;15.20;81.50
19803;DHT22;66074;50.764;6.090;2024-03-23T14:35:37;14.90;81.40
19803;DHT22;66074;50.764;6.090;2024-03-23T14:38:03;14.70;82.60
19803;DHT22;66074;50.764;6.090;2024-03-23T14:40:29;14.40;82.60
19803;DHT22;66074;50.764;6.090;2024-03-23T14:42:55;14.20;81.50
19803;DHT22;66074;50.764;6.090;2024-03-23T14:45:23;14.10;81.40
19803;DHT22;66074;50.764;6.090;2024-03-23T14:47:50;14.00;81.50
19803;DHT22;66074;50.764;6.090;2024-03-23T14:50:16;13.70;80.30
19803;DHT22;66074;50.764;6.090;2024-03-23T14:52:46;13.30;77.50
19803;DHT22;66074;50.764;6.090;2024-03-23T14:55:13;13.00;78.40
19803;DHT22;66074;50.764;6.090;2024-03-23T14:57:39;13.10;79.30
19803;DHT22;66074;50.764;6.090;2024-03-23T15:00:08;13.00;78.90
19803;DHT22;66074;50.764;6.090;2024-03-23T15:02:36;12.80;77.90
19803;DHT22;66074;50.764;6.090;2024-03-23T15:05:02;12.50;78.00
19803;DHT22;66074;50.764;6.090;2024-03-23T15:07:30;12.30;77.70
19803;DHT22;66074;50.764;6.090;2024-03-23T15:09:56;11.90;81.20
19803;DHT22;66074;50.764;6.090;2024-03-23T15:12:21;11.90;81.30
19803;DHT22;66074;50.764;6.090;2024-03-23T15:14:47;11.80;79.60
19803;DHT22;66074;50.764;6.090;2024-03-23T15:17:13;11.70;79.50
19803;DHT22;66074;50.764;6.090;2024-03-23T15:19:39;11.60;79.20
19803;DHT22;66074;50.764;6.090;2024-03-23T15:22:05;11.50;79.00
19803;DHT22;66074;50.764;6.090;2024-03-23T15:24:31;11.50;80.40
19803;DHT22;66074;50.764;6.090;2024-03-23T15:26:57;11.30;79.80
19803;DHT22;66074;50.764;6.090;2024-03-23T15:29:22;11.20;80.20
19803;DHT22;66074;50.764;6.090;2024-03-23T15:31:48;11.00;84.00
19803;DHT22;66074;50.764;6.090;2024-03-23T15:34:18;10.40;85.70
19803;DHT22;66074;50.764;6.090;2024-03-23T15:36:44;9.90;88.70
19803;DHT22;66074;50.764;6.090;2024-03-23T15:39:10;9.60;89.30
19803;DHT22;66074;50.764;6.090;2024-03-23T15:41:36;9.60;89.20
19803;DHT22;66074;50.764;6.090;2024-03-23T15:44:02;9.70;88.30
19803;DHT22;66074;50.764;6.090;2024-03-23T15:46:28;9.70;87.20
19803;DHT22;66074;50.764;6.090;2024-03-23T15:48:53;9.90;87.20
19803;DHT22;66074;50.764;6.090;2024-03-23T15:51:20;10.00;85.20
19803;DHT22;66074;50.764;6.090;2024-03-23T15:53:46;10.00;85.60
19803;DHT22;66074;50.764;6.090;2024-03-23T15:56:11;10.00;86.00
19803;DHT22;66074;50.764;6.090;2024-03-23T15:58:39;10.10;85.70
19803;DHT22;66074;50.764;6.090;2024-03-23T16:01:07;10.20;85.70
19803;DHT22;66074;50.764;6.090;2024-03-23T16:03:39;10.20;86.00
19803;DHT22;66074;50.764;6.090;2024-03-23T16:06:05;10.30;85.80
19803;DHT22;66074;50.764;6.090;2024-03-23T16:08:33;10.20;85.60
19803;DHT22;66074;50.764;6.090;2024-03-23T16:11:04;10.20;85.90
19803;DHT22;66074;50.764;6.090;2024-03-23T16:13:30;10.30;86.30
19803;DHT22;66074;50.764;6.090;2024-03-23T16:15:59;10.30;86.10
19803;DHT22;66074;50.764;6.090;2024-03-23T16:18:25;10.40;86.60
19803;DHT22;66074;50.764;6.090;2024-03-23T16:20:55;10.20;86.50
19803;DHT22;66074;50.764;6.090;2024-03-23T16:23:21;10.20;86.60
19803;DHT22;66074;50.764;6.090;2024-03-23T16:25:48;10.20;86.10
19803;DHT22;66074;50.764;6.090;2024-03-23T16:28:24;10.20;86.20
19803;DHT22;66074;50.764;6.090;2024-03-23T16:31:00;10.20;86.50
19803;DHT22;66074;50.764;6.090;2024-03-23T16:33:27;10.20;86.20
19803;DHT22;66074;50.764;6.090;2024-03-23T16:36:01;10.20;85.90
19803;DHT22;66074;50.764;6.090;2024-03-23T16:38:27;10.30;86.30
19803;DHT22;66074;50.764;6.090;2024-03-23T16:41:01;10.30;86.60
19803;DHT22;66074;50.764;6.090;2024-03-23T16:43:28;10.30;86.80
19803;DHT22;66074;50.764;6.090;2024-03-23T16:45:57;10.30;86.60
19803;DHT22;66074;50.764;6.090;2024-03-23T16:48:24;10.20;87.80